Time;durP1;ratioP1;P1;durP2;ratioP2;P2;SDS_P1;SDS_P2;PMS_P1;PMS_P2;Temp;Humidity;BMP_temperature;BMP_pressure;BME280_temperature;BME280_humidity;BME280_pressure;Samples;Min_cycle;Max_cycle;Signal;HPM_P1;HPM_P2
2021/01/09 00:01:19;;;;;;;18.27;11.23;;;1.40;99.90;;;;;;4975600;28;20466;-70
2021/01/09 00:03:46;;;;;;;16.93;11.37;;;1.40;99.90;;;;;;4993348;28;20545;-70
2021/01/09 00:06:14;;;;;;;20.00;12.97;;;1.40;99.90;;;;;;4986226;28;20469;-69
2021/01/09 00:08:42;;;;;;;22.60;13.27;;;1.40;99.90;;;;;;4982982;28;20456;-69
2021/01/09 00:11:09;;;;;;;21.57;11.40;;;1.40;99.90;;;;;;4991748;28;20440;-71
2021/01/09 00:13:41;;;;;;;26.10;13.40;;;1.40;99.90;;;;;;4989929;28;20435;-72
2021/01/09 00:16:09;;;;;;;17.53;11.33;;;1.40;99.90;;;;;;4974204;28;20496;-70
2021/01/09 00:18:37;;;;;;;21.80;13.37;;;1.40;99.90;;;;;;4974909;28;20483;-70
2021/01/09 00:21:04;;;;;;;21.23;12.83;;;1.30;99.90;;;;;;4975452;28;20427;-69
2021/01/09 00:23:32;;;;;;;19.53;12.40;;;1.30;99.90;;;;;;4979039;28;20557;-72
2021/01/09 00:26:00;;;;;;;19.20;12.60;;;1.30;99.90;;;;;;4979489;28;20430;-69
2021/01/09 00:28:27;;;;;;;24.33;13.83;;;1.40;99.90;;;;;;4987658;28;20500;-69
2021/01/09 00:30:55;;;;;;;23.20;12.77;;;1.40;99.90;;;;;;4973824;28;20492;-69
2021/01/09 00:33:23;;;;;;;22.80;13.47;;;1.30;99.90;;;;;;4989956;28;20850;-72
2021/01/09 00:35:53;;;;;;;20.90;13.73;;;1.30;99.90;;;;;;4974591;28;20446;-68
2021/01/09 00:38:21;;;;;;;23.67;13.57;;;1.30;99.90;;;;;;4974764;28;20456;-69
2021/01/09 00:40:49;;;;;;;20.77;13.30;;;1.30;99.90;;;;;;4987904;28;20442;-69
2021/01/09 00:43:17;;;;;;;21.53;12.50;;;1.30;99.90;;;;;;4973728;28;20562;-70
2021/01/09 00:45:44;;;;;;;21.17;13.87;;;1.30;99.90;;;;;;4991014;28;20453;-70
2021/01/09 00:48:12;;;;;;;22.87;13.13;;;1.30;99.90;;;;;;4974839;28;20557;-70
2021/01/09 00:50:40;;;;;;;23.30;13.87;;;1.30;99.90;;;;;;4989097;28;20521;-71
2021/01/09 00:53:08;;;;;;;26.23;14.43;;;1.30;99.90;;;;;;4956165;28;20446;-69
2021/01/09 00:55:35;;;;;;;26.10;13.63;;;1.30;99.90;;;;;;4988166;28;20438;-69
2021/01/09 00:58:03;;;;;;;23.23;13.87;;;1.30;99.90;;;;;;4973247;28;20922;-70
2021/01/09 01:00:30;;;;;;;20.40;12.97;;;1.20;99.90;;;;;;4955526;28;20521;-69
2021/01/09 01:02:57;;;;;;;25.10;14.07;;;1.20;99.90;;;;;;4971776;28;20502;-69
2021/01/09 01:05:27;;;;;;;23.40;13.53;;;1.20;99.90;;;;;;4972838;28;20518;-70
2021/01/09 01:07:55;;;;;;;22.60;12.70;;;1.20;99.90;;;;;;4988074;28;20438;-69
2021/01/09 01:10:22;;;;;;;22.30;12.73;;;1.30;99.90;;;;;;4972845;28;20480;-69
2021/01/09 01:12:52;;;;;;;19.67;13.80;;;1.30;99.90;;;;;;4972643;28;20434;-70
2021/01/09 01:15:20;;;;;;;24.70;14.43;;;1.20;99.90;;;;;;4987177;28;20589;-69
2021/01/09 01:17:48;;;;;;;23.67;13.93;;;1.20;99.90;;;;;;4972531;28;20482;-70
2021/01/09 01:20:16;;;;;;;20.87;13.10;;;1.30;99.90;;;;;;4988508;28;20723;-71
2021/01/09 01:22:46;;;;;;;25.63;15.10;;;1.20;99.90;;;;;;4972370;28;20987;-68
2021/01/09 01:25:14;;;;;;;22.80;15.30;;;1.30;99.90;;;;;;4972739;28;20435;-69
2021/01/09 01:27:42;;;;;;;26.63;13.33;;;1.30;99.90;;;;;;4987745;28;20430;-70
2021/01/09 01:30:10;;;;;;;22.63;13.00;;;1.30;99.90;;;;;;4972150;28;20529;-69
2021/01/09 01:32:38;;;;;;;21.23;12.37;;;1.30;99.90;;;;;;4971856;28;20523;-69
2021/01/09 01:35:06;;;;;;;22.00;12.80;;;1.30;99.90;;;;;;4972873;28;20441;-69
2021/01/09 01:37:35;;;;;;;23.83;14.37;;;1.20;99.90;;;;;;4987330;28;20450;-69
2021/01/09 01:40:03;;;;;;;24.27;12.50;;;1.20;99.90;;;;;;4972936;28;20521;-71
2021/01/09 01:42:32;;;;;;;28.90;13.43;;;1.20;99.90;;;;;;4986963;28;20505;-72
2021/01/09 01:44:59;;;;;;;21.17;14.03;;;1.20;99.90;;;;;;4972759;28;20418;-71
2021/01/09 01:47:27;;;;;;;21.93;12.73;;;1.20;99.90;;;;;;4971873;28;20473;-69
2021/01/09 01:49:55;;;;;;;19.53;12.30;;;1.20;99.90;;;;;;4987660;28;20510;-70
2021/01/09 01:52:25;;;;;;;21.23;12.53;;;1.20;99.90;;;;;;4972478;28;20430;-72
2021/01/09 01:57:45;;;;;;;25.57;13.27;;;1.10;99.90;;;;;;4972463;28;20937;-71
2021/01/09 02:00:14;;;;;;;21.40;13.90;;;1.00;99.90;;;;;;4986669;28;20484;-69
2021/01/09 02:02:41;;;;;;;21.60;13.83;;;1.00;99.90;;;;;;4986682;28;20482;-69
2021/01/09 02:05:10;;;;;;;27.93;13.73;;;1.00;99.90;;;;;;4955413;28;20437;-71
2021/01/09 02:07:41;;;;;;;23.60;13.23;;;1.00;99.90;;;;;;4971144;28;20442;-69
2021/01/09 02:10:10;;;;;;;25.00;13.90;;;1.00;99.90;;;;;;4970056;28;20477;-71
2021/01/09 02:12:43;;;;;;;20.93;13.47;;;1.10;99.90;;;;;;4971423;28;20434;-69
2021/01/09 02:15:14;;;;;;;25.23;14.17;;;1.10;99.90;;;;;;4975813;28;20437;-69
2021/01/09 02:17:42;;;;;;;25.50;13.70;;;1.10;99.90;;;;;;4992192;28;20443;-70
2021/01/09 02:20:10;;;;;;;21.23;13.47;;;1.10;99.90;;;;;;4981657;28;20509;-70
2021/01/09 02:22:43;;;;;;;24.70;14.03;;;1.10;99.90;;;;;;4977344;28;20471;-69
2021/01/09 02:25:12;;;;;;;23.50;14.17;;;1.10;99.90;;;;;;4975373;28;20437;-70
2021/01/09 02:27:40;;;;;;;24.97;13.57;;;1.00;99.90;;;;;;4976009;28;20433;-69
2021/01/09 02:30:12;;;;;;;22.97;13.17;;;0.90;99.90;;;;;;4975554;28;20431;-68
2021/01/09 02:32:47;;;;;;;22.70;13.10;;;0.90;99.90;;;;;;4975496;28;20851;-70
2021/01/09 02:35:16;;;;;;;20.10;13.13;;;0.90;99.90;;;;;;4957867;28;20988;-72
2021/01/09 02:37:45;;;;;;;18.00;12.60;;;0.80;99.90;;;;;;4990573;28;20817;-72
2021/01/09 02:40:15;;;;;;;16.00;10.67;;;0.90;99.90;;;;;;4975750;28;20540;-69
2021/01/09 02:42:42;;;;;;;22.57;13.67;;;0.90;99.90;;;;;;4974813;28;20534;-70
2021/01/09 02:45:11;;;;;;;17.70;11.30;;;0.90;99.90;;;;;;4974941;28;20438;-69
2021/01/09 02:47:39;;;;;;;20.47;12.03;;;0.90;99.90;;;;;;4975390;28;20473;-70
2021/01/09 02:50:10;;;;;;;16.93;11.40;;;1.00;99.90;;;;;;4975818;28;20808;-70
2021/01/09 02:52:38;;;;;;;19.77;12.17;;;1.00;99.90;;;;;;4973938;28;20567;-69
2021/01/09 02:55:08;;;;;;;15.73;10.97;;;1.10;99.90;;;;;;4975870;28;20545;-70
2021/01/09 02:57:36;;;;;;;20.27;13.30;;;1.10;99.90;;;;;;4990052;28;20438;-69
2021/01/09 03:00:05;;;;;;;23.90;12.27;;;1.10;99.90;;;;;;4974954;28;20442;-68
2021/01/09 03:02:32;;;;;;;20.80;12.70;;;1.10;99.90;;;;;;4973665;28;20543;-71
2021/01/09 03:04:59;;;;;;;18.33;12.30;;;1.10;99.90;;;;;;4974047;28;20431;-69
2021/01/09 03:07:27;;;;;;;19.00;11.40;;;1.10;99.90;;;;;;4990325;28;20430;-70
2021/01/09 03:09:54;;;;;;;16.93;10.40;;;1.10;99.90;;;;;;4990259;28;20420;-70
2021/01/09 03:12:23;;;;;;;18.60;12.70;;;1.10;99.90;;;;;;4975389;28;20469;-69
2021/01/09 03:14:52;;;;;;;20.10;13.00;;;1.20;99.90;;;;;;4975275;28;20555;-69
2021/01/09 03:17:19;;;;;;;20.27;12.00;;;1.20;99.90;;;;;;4975358;28;20477;-69
2021/01/09 03:19:46;;;;;;;19.50;11.60;;;1.10;99.90;;;;;;4976958;28;20441;-69
2021/01/09 03:22:15;;;;;;;20.83;11.80;;;1.00;99.90;;;;;;4976837;28;20463;-70
2021/01/09 03:24:43;;;;;;;18.57;10.70;;;1.00;99.90;;;;;;4982568;28;20440;-70
2021/01/09 03:27:10;;;;;;;17.60;11.93;;;1.00;99.90;;;;;;4986661;28;20442;-69
2021/01/09 03:29:38;;;;;;;19.63;10.60;;;1.00;99.90;;;;;;4977467;28;20449;-69
2021/01/09 03:32:06;;;;;;;21.53;12.77;;;1.00;99.90;;;;;;4989841;28;20462;-69
2021/01/09 03:34:33;;;;;;;16.00;10.00;;;1.00;99.90;;;;;;4974957;28;20472;-70
2021/01/09 03:37:00;;;;;;;17.60;11.23;;;1.00;99.90;;;;;;4974760;28;20462;-70
2021/01/09 03:39:28;;;;;;;16.43;10.83;;;1.00;99.90;;;;;;4974368;28;20473;-71
2021/01/09 03:41:56;;;;;;;18.43;11.70;;;1.00;99.90;;;;;;4973981;28;20555;-69
2021/01/09 03:44:23;;;;;;;18.97;10.53;;;1.10;99.90;;;;;;4989118;28;20434;-69
2021/01/09 03:46:53;;;;;;;22.47;12.20;;;1.10;99.90;;;;;;4973667;28;20462;-71
2021/01/09 03:49:20;;;;;;;18.40;13.03;;;1.10;99.90;;;;;;4989009;28;20857;-69
2021/01/09 03:51:48;;;;;;;14.10;10.30;;;1.10;99.90;;;;;;4989575;28;20440;-69
2021/01/09 03:54:16;;;;;;;20.23;11.70;;;1.10;99.90;;;;;;4989063;28;20811;-71
2021/01/09 03:56:44;;;;;;;17.93;11.67;;;1.00;99.90;;;;;;4974360;28;20441;-69
2021/01/09 03:59:11;;;;;;;16.73;10.10;;;1.00;99.90;;;;;;4974028;28;20434;-69
2021/01/09 04:01:39;;;;;;;16.43;10.93;;;1.00;99.90;;;;;;4973484;28;20505;-72
2021/01/09 04:04:07;;;;;;;16.33;9.77;;;1.00;99.90;;;;;;4975105;28;20557;-71
2021/01/09 04:06:41;;;;;;;18.37;11.73;;;1.00;99.90;;;;;;4982216;28;20449;-69
2021/01/09 04:09:08;;;;;;;19.83;12.63;;;1.00;99.90;;;;;;4981971;28;21612;-69
2021/01/09 04:11:38;;;;;;;16.77;10.50;;;1.00;99.90;;;;;;4974111;28;20461;-69
2021/01/09 04:14:06;;;;;;;17.17;9.30;;;1.00;99.90;;;;;;4975419;28;20438;-68
2021/01/09 04:16:35;;;;;;;14.53;9.40;;;1.10;99.90;;;;;;4974902;28;20520;-69
2021/01/09 04:19:02;;;;;;;20.83;10.70;;;1.00;99.90;;;;;;4978750;28;20434;-69
2021/01/09 04:21:31;;;;;;;17.63;9.73;;;1.00;99.90;;;;;;5001255;28;20459;-69
2021/01/09 04:23:58;;;;;;;17.80;10.37;;;0.90;99.90;;;;;;4983016;28;20462;-71
2021/01/09 04:26:26;;;;;;;16.60;9.43;;;1.00;99.90;;;;;;4974791;28;20438;-69
2021/01/09 04:28:53;;;;;;;15.50;10.67;;;0.90;99.90;;;;;;4974282;28;20430;-69
2021/01/09 04:31:21;;;;;;;15.33;10.00;;;1.00;99.90;;;;;;4972768;28;20595;-70
2021/01/09 04:33:48;;;;;;;13.47;9.10;;;1.00;99.90;;;;;;4973418;28;20434;-69
2021/01/09 04:36:15;;;;;;;16.07;9.57;;;1.00;99.90;;;;;;4973182;28;21006;-72
2021/01/09 04:38:44;;;;;;;17.37;10.27;;;1.00;99.90;;;;;;4973410;28;20442;-70
2021/01/09 04:41:12;;;;;;;17.70;11.10;;;1.00;99.90;;;;;;4973877;28;20814;-69
2021/01/09 04:43:40;;;;;;;16.60;9.60;;;1.10;99.90;;;;;;4973963;28;20480;-73
2021/01/09 04:46:08;;;;;;;15.23;10.20;;;1.10;99.90;;;;;;4971483;28;20996;-71
2021/01/09 04:48:37;;;;;;;16.27;10.10;;;1.20;99.90;;;;;;4972308;28;20503;-71
2021/01/09 04:51:04;;;;;;;20.37;11.27;;;1.10;99.90;;;;;;4972176;28;20515;-69
2021/01/09 04:53:35;;;;;;;18.10;10.13;;;1.10;99.90;;;;;;4972273;28;20430;-73
2021/01/09 04:56:05;;;;;;;15.83;9.47;;;1.10;99.90;;;;;;4987878;28;20434;-69
2021/01/09 04:58:34;;;;;;;14.33;10.10;;;1.10;99.90;;;;;;4973261;28;20430;-69
2021/01/09 05:01:02;;;;;;;19.23;10.33;;;1.00;99.90;;;;;;4972064;28;20442;-70
2021/01/09 05:03:29;;;;;;;16.53;11.00;;;1.00;99.90;;;;;;4973233;28;20480;-70
2021/01/09 05:05:58;;;;;;;20.47;11.67;;;1.00;99.90;;;;;;4988461;28;20441;-69
2021/01/09 05:08:26;;;;;;;18.17;10.67;;;1.10;99.90;;;;;;4973394;28;20445;-68
2021/01/09 05:10:53;;;;;;;20.27;11.97;;;1.00;99.90;;;;;;4988643;28;20470;-69
2021/01/09 05:13:23;;;;;;;20.00;10.30;;;1.00;99.90;;;;;;4975097;28;20429;-68
2021/01/09 05:15:55;;;;;;;21.13;12.30;;;0.90;99.90;;;;;;4973296;28;20438;-69
2021/01/09 05:18:22;;;;;;;15.07;10.10;;;0.90;99.90;;;;;;4990133;28;20985;-71
2021/01/09 05:20:50;;;;;;;17.80;11.00;;;0.90;99.90;;;;;;4989775;28;20858;-69
2021/01/09 05:23:18;;;;;;;18.63;12.40;;;0.90;99.90;;;;;;4989593;28;20542;-69
2021/01/09 05:25:46;;;;;;;19.00;11.53;;;0.90;99.90;;;;;;4974659;28;20526;-70
2021/01/09 05:28:17;;;;;;;18.70;11.37;;;0.90;99.90;;;;;;4981100;28;20434;-71
2021/01/09 05:30:45;;;;;;;18.57;11.37;;;0.80;99.90;;;;;;4991802;28;20506;-69
2021/01/09 05:33:13;;;;;;;17.00;9.50;;;0.80;99.90;;;;;;4992276;28;20445;-69
2021/01/09 05:35:40;;;;;;;19.13;10.80;;;0.80;99.90;;;;;;4992015;28;20941;-69
2021/01/09 05:38:08;;;;;;;18.23;10.23;;;0.90;99.90;;;;;;4992417;28;20457;-70
2021/01/09 05:40:39;;;;;;;18.77;10.50;;;0.90;99.90;;;;;;4989643;28;20430;-69
2021/01/09 05:43:08;;;;;;;19.30;11.83;;;0.90;99.90;;;;;;4991020;28;20476;-70
2021/01/09 05:45:38;;;;;;;16.27;9.73;;;0.90;99.90;;;;;;4989693;28;20445;-69
2021/01/09 05:48:08;;;;;;;17.00;10.60;;;0.90;99.90;;;;;;4989573;28;20482;-69
2021/01/09 05:50:38;;;;;;;19.87;11.10;;;1.00;99.90;;;;;;4982039;28;20462;-70
2021/01/09 05:53:06;;;;;;;17.60;10.23;;;0.90;99.90;;;;;;5036202;22;20498;-77
2021/01/09 05:55:43;;;;;;;18.60;11.87;;;0.90;99.90;;;;;;5031066;28;20427;-74
2021/01/09 05:58:13;;;;;;;16.33;10.47;;;0.90;99.90;;;;;;5029808;28;20929;-76
2021/01/09 06:00:45;;;;;;;15.17;9.80;;;0.80;99.90;;;;;;5024527;28;20448;-74
2021/01/09 06:03:20;;;;;;;15.73;9.87;;;0.80;99.90;;;;;;5010863;28;20481;-72
2021/01/09 06:05:50;;;;;;;20.60;11.63;;;0.70;99.90;;;;;;5011322;28;20468;-73
2021/01/09 06:08:26;;;;;;;19.87;10.70;;;0.70;99.90;;;;;;5010022;28;20433;-73
2021/01/09 06:10:56;;;;;;;16.07;9.80;;;0.70;99.90;;;;;;5010343;28;20480;-76
2021/01/09 06:13:27;;;;;;;18.47;10.33;;;0.70;99.90;;;;;;5009840;28;20436;-74
2021/01/09 06:15:59;;;;;;;20.00;11.83;;;0.70;99.90;;;;;;5010471;28;21009;-73
2021/01/09 06:18:28;;;;;;;16.53;10.20;;;0.70;99.90;;;;;;5012260;28;20420;-72
2021/01/09 06:20:56;;;;;;;20.13;12.37;;;0.70;99.90;;;;;;5011869;28;20433;-72
2021/01/09 06:23:25;;;;;;;17.97;10.50;;;0.70;99.90;;;;;;5010379;28;20915;-73
2021/01/09 06:25:53;;;;;;;22.70;11.67;;;0.70;99.90;;;;;;5010447;28;20437;-72
2021/01/09 06:28:24;;;;;;;18.00;10.63;;;0.70;99.90;;;;;;5011532;28;20447;-71
2021/01/09 06:30:55;;;;;;;15.53;9.70;;;0.70;99.90;;;;;;5011197;28;20484;-72
2021/01/09 06:33:24;;;;;;;14.90;8.90;;;0.70;99.90;;;;;;5009932;28;20428;-73
2021/01/09 06:35:54;;;;;;;19.60;10.90;;;0.70;99.90;;;;;;5011029;28;20537;-77
2021/01/09 06:38:23;;;;;;;15.37;10.20;;;0.70;99.90;;;;;;5011389;28;20454;-76
2021/01/09 06:40:50;;;;;;;14.07;8.80;;;0.70;99.90;;;;;;5026700;28;20799;-72
2021/01/09 06:43:18;;;;;;;17.30;10.67;;;0.70;99.90;;;;;;5012345;28;20559;-73
2021/01/09 06:45:48;;;;;;;21.13;11.00;;;0.60;99.90;;;;;;5010141;28;20488;-74
2021/01/09 06:48:18;;;;;;;17.40;10.17;;;0.60;99.90;;;;;;5010507;28;20512;-73
2021/01/09 06:50:45;;;;;;;18.93;11.33;;;0.70;99.90;;;;;;5009692;28;20886;-73
2021/01/09 06:53:16;;;;;;;17.17;10.50;;;0.60;99.90;;;;;;5028895;28;20517;-73
2021/01/09 06:56:03;;;;;;;14.60;9.67;;;0.60;99.90;;;;;;5030805;28;20964;-72
2021/01/09 06:58:33;;;;;;;17.57;9.83;;;0.60;99.90;;;;;;5013300;28;20439;-74
2021/01/09 07:01:20;;;;;;;21.17;10.97;;;0.60;99.90;;;;;;5032637;28;20537;-73
2021/01/09 07:03:49;;;;;;;15.20;10.00;;;0.50;99.90;;;;;;5034671;28;20462;-72
2021/01/09 07:06:39;;;;;;;23.40;13.47;;;0.50;99.90;;;;;;5035726;28;20443;-73
2021/01/09 07:09:08;;;;;;;17.10;9.40;;;0.50;99.90;;;;;;5034429;28;20481;-72
2021/01/09 07:11:35;;;;;;;14.93;9.73;;;0.60;99.90;;;;;;5034648;28;20526;-72
2021/01/09 07:14:14;;;;;;;15.53;9.60;;;0.70;99.90;;;;;;5016415;28;20523;-75
2021/01/09 07:16:42;;;;;;;70.77;37.17;;;0.70;99.90;;;;;;5031707;28;20466;-73
2021/01/09 07:19:11;;;;;;;17.03;10.40;;;0.70;99.90;;;;;;5034278;28;20895;-72
2021/01/09 07:21:39;;;;;;;18.00;9.77;;;0.80;99.90;;;;;;5016393;28;21004;-74
2021/01/09 07:24:09;;;;;;;15.23;9.40;;;0.80;99.90;;;;;;5034816;28;20459;-75
2021/01/09 07:26:40;;;;;;;16.07;9.53;;;0.80;99.90;;;;;;5034402;28;20766;-72
2021/01/09 07:29:08;;;;;;;15.83;11.47;;;0.90;99.90;;;;;;5034456;28;21077;-74
2021/01/09 07:31:39;;;;;;;25.30;16.13;;;0.90;99.90;;;;;;5014868;28;20550;-74
2021/01/09 07:34:12;;;;;;;17.70;10.40;;;0.90;99.90;;;;;;5016261;28;20471;-76
2021/01/09 07:36:42;;;;;;;16.20;9.87;;;0.90;99.90;;;;;;5034209;28;20448;-73
2021/01/09 07:39:11;;;;;;;20.60;11.13;;;0.90;99.90;;;;;;5016590;28;20438;-72
2021/01/09 07:41:40;;;;;;;18.67;10.00;;;0.90;99.90;;;;;;5034754;28;20867;-75
2021/01/09 07:44:12;;;;;;;17.40;9.73;;;1.00;99.90;;;;;;5016707;28;20462;-72
2021/01/09 07:47:05;;;;;;;16.63;10.13;;;0.90;99.90;;;;;;5015894;28;20810;-73
2021/01/09 07:49:34;;;;;;;15.97;10.27;;;0.80;99.90;;;;;;5034190;28;20442;-73
2021/01/09 07:52:03;;;;;;;16.77;9.80;;;0.80;99.90;;;;;;5012343;28;20499;-73
2021/01/09 07:54:36;;;;;;;17.70;9.77;;;0.70;99.90;;;;;;5014994;28;20528;-77
2021/01/09 07:57:05;;;;;;;16.67;10.23;;;0.70;99.90;;;;;;5014420;28;20482;-72
2021/01/09 07:59:32;;;;;;;15.73;9.10;;;0.70;99.90;;;;;;5013109;28;20428;-73
2021/01/09 08:02:01;;;;;;;17.83;10.73;;;0.70;99.90;;;;;;5024816;28;20575;-75
2021/01/09 08:04:28;;;;;;;12.97;8.10;;;0.70;99.90;;;;;;5012490;28;21045;-73
2021/01/09 08:06:56;;;;;;;15.80;9.17;;;0.80;99.90;;;;;;5012339;28;21000;-74
2021/01/09 08:09:27;;;;;;;15.40;9.90;;;0.80;99.90;;;;;;5013696;28;20914;-74
2021/01/09 08:12:02;;;;;;;14.47;8.90;;;0.80;99.90;;;;;;5012222;28;20473;-74
2021/01/09 08:14:30;;;;;;;15.90;9.60;;;0.80;99.90;;;;;;5013277;28;21034;-73
2021/01/09 08:17:09;;;;;;;17.20;9.43;;;0.90;99.90;;;;;;5027349;28;20463;-73
2021/01/09 08:19:38;;;;;;;13.10;8.90;;;0.90;99.90;;;;;;5032810;28;20434;-77
2021/01/09 08:22:05;;;;;;;20.20;10.90;;;0.80;99.90;;;;;;5034148;28;20539;-75
2021/01/09 08:24:33;;;;;;;17.47;9.27;;;0.80;99.90;;;;;;5033060;28;20470;-74
2021/01/09 08:27:02;;;;;;;12.10;8.10;;;0.70;99.90;;;;;;5032748;28;20470;-73
2021/01/09 08:29:29;;;;;;;11.80;7.93;;;0.70;99.90;;;;;;5047641;28;20436;-68
2021/01/09 08:31:57;;;;;;;13.40;8.83;;;0.70;99.90;;;;;;5030497;28;20475;-68
2021/01/09 08:34:25;;;;;;;14.83;8.70;;;0.70;99.90;;;;;;5032094;28;20432;-67
2021/01/09 08:36:54;;;;;;;11.60;7.50;;;0.70;99.90;;;;;;5033360;28;20439;-68
2021/01/09 08:39:23;;;;;;;13.37;8.57;;;0.90;99.90;;;;;;5032998;28;20428;-67
2021/01/09 08:41:51;;;;;;;13.50;7.87;;;1.00;99.90;;;;;;5033333;28;20427;-67
2021/01/09 08:44:19;;;;;;;16.03;8.53;;;1.20;99.90;;;;;;5032688;28;20471;-73
2021/01/09 08:46:47;;;;;;;11.70;7.40;;;1.20;99.90;;;;;;5030246;28;20483;-72
2021/01/09 08:49:24;;;;;;;13.20;8.07;;;1.20;99.90;;;;;;5031717;28;20505;-71
2021/01/09 08:51:58;;;;;;;14.27;7.43;;;1.00;99.90;;;;;;5047298;28;20562;-73
2021/01/09 08:54:29;;;;;;;14.07;8.57;;;1.00;99.90;;;;;;5031133;28;20438;-73
2021/01/09 08:56:57;;;;;;;13.97;7.93;;;1.00;99.90;;;;;;5031335;28;20435;-71
2021/01/09 08:59:26;;;;;;;14.53;8.50;;;1.50;99.90;;;;;;5014407;28;20522;-71
2021/01/09 09:01:57;;;;;;;12.50;8.10;;;2.80;99.90;;;;;;5029867;28;20474;-71
2021/01/09 09:04:25;;;;;;;13.00;7.23;;;4.70;99.90;;;;;;5031596;28;20454;-72
2021/01/09 09:06:58;;;;;;;10.50;6.97;;;5.90;99.90;;;;;;5033985;28;21229;-71
2021/01/09 09:09:29;;;;;;;12.37;7.50;;;5.80;99.90;;;;;;5032212;28;20442;-71
2021/01/09 09:11:56;;;;;;;13.97;8.20;;;6.10;99.90;;;;;;5033247;28;20439;-71
2021/01/09 09:14:25;;;;;;;9.60;7.23;;;5.40;99.90;;;;;;5033431;28;20440;-72
2021/01/09 09:16:59;;;;;;;13.40;8.80;;;4.80;99.90;;;;;;5030904;28;20475;-71
2021/01/09 09:19:28;;;;;;;13.20;7.47;;;4.20;99.90;;;;;;5033141;28;20443;-73
2021/01/09 09:21:58;;;;;;;12.70;7.93;;;4.30;99.90;;;;;;5031506;28;20439;-72
2021/01/09 09:24:41;;;;;;;9.83;7.40;;;4.50;99.90;;;;;;5033961;28;20463;-72
2021/01/09 09:27:25;;;;;;;10.00;7.23;;;4.30;99.90;;;;;;5031624;28;20450;-70
2021/01/09 09:30:14;;;;;;;13.67;8.00;;;3.70;99.90;;;;;;5033145;28;20435;-73
2021/01/09 09:32:45;;;;;;;17.47;10.53;;;3.20;99.90;;;;;;5033081;28;20471;-71
2021/01/09 09:35:20;;;;;;;14.93;11.10;;;2.70;99.90;;;;;;5033795;28;20431;-71
2021/01/09 09:37:49;;;;;;;13.80;7.40;;;2.60;99.90;;;;;;5031097;28;20466;-71
2021/01/09 09:40:26;;;;;;;12.30;7.67;;;2.50;99.90;;;;;;5031030;28;20459;-76
2021/01/09 09:43:14;;;;;;;11.77;7.67;;;2.30;99.90;;;;;;5034492;28;20476;-74
2021/01/09 09:45:56;;;;;;;12.67;8.53;;;2.30;99.90;;;;;;5037915;28;20623;-71
2021/01/09 09:48:33;;;;;;;11.70;7.30;;;2.20;99.90;;;;;;5021960;28;20487;-72
2021/01/09 09:51:02;;;;;;;14.17;8.40;;;2.30;99.90;;;;;;5024843;28;20489;-74
2021/01/09 09:53:33;;;;;;;16.53;8.33;;;2.20;99.90;;;;;;5042311;28;20431;-73
2021/01/09 09:56:19;;;;;;;13.70;6.70;;;2.20;99.90;;;;;;5021986;28;20470;-73
2021/01/09 09:58:59;;;;;;;13.90;7.50;;;2.10;99.90;;;;;;5020271;28;20481;-72
2021/01/09 10:01:29;;;;;;;11.70;7.50;;;2.10;99.90;;;;;;5022977;28;20480;-75
2021/01/09 10:04:00;;;;;;;15.00;7.53;;;2.00;99.90;;;;;;5018492;28;20479;-71
2021/01/09 10:06:36;;;;;;;12.70;8.20;;;2.10;99.90;;;;;;5019069;28;20472;-72
2021/01/09 10:09:18;;;;;;;11.10;5.80;;;2.50;99.90;;;;;;5016917;28;20440;-72
2021/01/09 10:11:47;;;;;;;8.93;6.50;;;2.90;99.90;;;;;;5018159;28;20416;-72
2021/01/09 10:14:21;;;;;;;8.10;5.30;;;3.20;99.90;;;;;;5034824;28;20462;-75
2021/01/09 10:16:49;;;;;;;9.33;6.43;;;3.10;99.90;;;;;;5029121;28;20511;-73
2021/01/09 10:19:19;;;;;;;7.07;5.63;;;3.30;99.90;;;;;;5020536;28;20448;-71
2021/01/09 10:21:47;;;;;;;11.30;6.37;;;3.80;99.90;;;;;;5018666;28;20454;-72
2021/01/09 10:24:15;;;;;;;9.60;6.30;;;4.50;99.90;;;;;;5018796;28;20456;-73
2021/01/09 10:26:42;;;;;;;10.40;6.73;;;4.20;99.90;;;;;;5019020;28;20488;-76
2021/01/09 10:29:16;;;;;;;12.80;6.70;;;3.60;99.90;;;;;;5002913;28;20775;-72
2021/01/09 10:31:49;;;;;;;8.77;6.17;;;3.00;99.90;;;;;;4999912;28;20487;-73
2021/01/09 10:34:16;;;;;;;9.17;5.13;;;2.70;99.90;;;;;;5020872;28;20603;-73
2021/01/09 10:36:45;;;;;;;7.43;6.23;;;2.40;99.90;;;;;;5022307;28;20494;-72
2021/01/09 10:39:13;;;;;;;8.43;6.23;;;2.40;99.90;;;;;;5021577;28;20499;-75
2021/01/09 10:41:40;;;;;;;7.77;6.10;;;2.40;99.90;;;;;;5022519;28;20916;-71
2021/01/09 10:44:09;;;;;;;8.40;5.80;;;2.70;99.90;;;;;;5022171;28;20526;-75
2021/01/09 10:46:37;;;;;;;8.90;5.77;;;2.80;99.90;;;;;;5033724;28;20471;-73
2021/01/09 10:49:07;;;;;;;6.80;5.17;;;2.90;99.90;;;;;;5039112;28;20423;-72
2021/01/09 10:54:28;;;;;;;7.63;5.17;;;3.70;99.90;;;;;;5055863;28;20445;-67
2021/01/09 10:56:56;;;;;;;6.57;4.77;;;4.00;99.90;;;;;;5055830;28;20438;-70
2021/01/09 10:59:23;;;;;;;9.07;5.70;;;4.60;99.90;;;;;;5056674;28;20510;-75
2021/01/09 11:01:51;;;;;;;8.70;5.30;;;4.50;99.90;;;;;;5054511;28;20807;-71
2021/01/09 11:04:43;;;;;;;7.97;6.50;;;4.30;99.90;;;;;;5055975;28;20474;-72
2021/01/09 11:07:10;;;;;;;11.60;6.93;;;3.90;99.90;;;;;;5056500;28;20968;-72
2021/01/09 11:09:39;;;;;;;6.70;5.03;;;3.90;99.90;;;;;;5056057;28;20791;-71
2021/01/09 11:12:07;;;;;;;10.00;5.37;;;3.60;99.90;;;;;;5037835;28;20462;-71
2021/01/09 11:14:35;;;;;;;7.80;5.87;;;3.40;99.90;;;;;;5056029;28;20860;-71
2021/01/09 11:17:07;;;;;;;7.30;5.67;;;3.10;99.90;;;;;;5054037;28;20485;-71
2021/01/09 11:19:35;;;;;;;9.93;5.70;;;3.00;99.90;;;;;;5037214;28;20453;-71
2021/01/09 11:22:02;;;;;;;9.00;5.37;;;3.00;99.90;;;;;;5054523;28;20791;-71
2021/01/09 11:24:30;;;;;;;7.70;5.30;;;2.90;99.90;;;;;;5036737;28;20456;-73
2021/01/09 11:27:00;;;;;;;10.30;6.50;;;3.00;99.90;;;;;;5054820;28;20747;-75
2021/01/09 11:29:28;;;;;;;7.80;5.53;;;3.20;99.90;;;;;;5054391;28;20431;-72
2021/01/09 11:31:59;;;;;;;8.00;6.20;;;3.20;99.90;;;;;;5052789;28;20493;-75
2021/01/09 11:34:28;;;;;;;7.40;5.80;;;3.30;99.90;;;;;;5054409;28;20430;-72
2021/01/09 11:36:55;;;;;;;8.80;6.23;;;3.40;99.90;;;;;;5054582;28;21005;-73
2021/01/09 11:39:23;;;;;;;8.20;5.70;;;3.70;99.90;;;;;;5055427;28;20815;-73
2021/01/09 11:44:43;;;;;;;9.63;5.80;;;4.60;99.90;;;;;;5054971;28;20474;-72
2021/01/09 11:47:11;;;;;;;6.93;4.33;;;4.20;99.90;;;;;;5035642;28;21002;-71
2021/01/09 11:49:38;;;;;;;10.60;5.90;;;3.80;99.90;;;;;;5036923;28;20445;-74
2021/01/09 11:52:06;;;;;;;8.20;5.40;;;3.40;99.90;;;;;;5016128;28;20475;-71
2021/01/09 11:54:35;;;;;;;7.67;6.00;;;3.70;99.90;;;;;;5034173;28;20494;-70
2021/01/09 11:57:03;;;;;;;44.97;30.10;;;3.70;99.90;;;;;;5034389;28;20466;-72
2021/01/09 11:59:31;;;;;;;14.00;7.63;;;5.10;99.90;;;;;;5034714;28;20411;-72
2021/01/09 12:02:00;;;;;;;6.93;4.50;;;6.90;99.00;;;;;;5033049;28;20968;-71
2021/01/09 12:04:28;;;;;;;8.30;4.90;;;7.20;95.70;;;;;;5034300;28;20493;-71
2021/01/09 12:06:58;;;;;;;39.67;25.67;;;6.50;96.70;;;;;;5035276;28;20409;-75
2021/01/09 12:09:26;;;;;;;8.73;6.13;;;6.00;97.80;;;;;;5034321;28;20466;-72
2021/01/09 12:11:55;;;;;;;9.13;5.87;;;5.60;98.60;;;;;;5034665;28;20447;-72
2021/01/09 12:14:23;;;;;;;6.27;5.43;;;5.90;99.00;;;;;;5032393;28;20438;-71
2021/01/09 12:16:50;;;;;;;7.33;5.60;;;5.30;99.30;;;;;;5031513;28;20451;-72
2021/01/09 12:19:24;;;;;;;5.80;4.83;;;4.60;99.90;;;;;;5032209;28;20433;-75
2021/01/09 12:21:52;;;;;;;8.77;5.50;;;4.10;99.90;;;;;;5033958;28;20455;-73
2021/01/09 12:24:20;;;;;;;6.47;4.90;;;3.40;99.90;;;;;;5032569;28;20459;-72
2021/01/09 12:26:51;;;;;;;7.43;4.60;;;3.10;99.90;;;;;;5032007;28;20497;-72
2021/01/09 12:29:18;;;;;;;7.63;4.40;;;3.40;99.90;;;;;;5033776;28;20555;-72
2021/01/09 12:31:46;;;;;;;5.77;4.60;;;5.60;99.90;;;;;;5026496;28;20452;-71
2021/01/09 12:34:17;;;;;;;6.27;5.20;;;7.00;96.30;;;;;;5023213;28;20552;-72
2021/01/09 12:36:51;;;;;;;7.17;4.90;;;6.20;96.90;;;;;;5022612;28;20443;-72
2021/01/09 12:39:19;;;;;;;10.53;5.70;;;5.10;98.00;;;;;;5024071;28;20548;-71
2021/01/09 12:41:46;;;;;;;9.93;6.60;;;4.20;99.90;;;;;;5024670;28;20563;-70
2021/01/09 12:44:34;;;;;;;7.53;6.07;;;3.50;99.90;;;;;;5024472;28;20969;-71
2021/01/09 12:47:02;;;;;;;7.40;4.93;;;3.20;99.90;;;;;;5021590;28;20483;-71
2021/01/09 12:49:30;;;;;;;6.90;5.00;;;3.20;99.90;;;;;;5024294;28;20433;-70
2021/01/09 12:51:59;;;;;;;9.50;5.93;;;3.10;99.90;;;;;;5029506;23;20487;-78
2021/01/09 12:54:27;;;;;;;7.10;5.70;;;3.20;99.90;;;;;;4984684;23;20508;-70
2021/01/09 12:56:55;;;;;;;7.90;5.30;;;2.70;99.90;;;;;;5085678;28;20582;-68
2021/01/09 12:59:23;;;;;;;7.87;5.17;;;2.70;99.90;;;;;;5084511;28;20488;-68
2021/01/09 13:01:51;;;;;;;8.30;5.50;;;2.80;99.90;;;;;;5066426;28;20568;-69
2021/01/09 13:04:20;;;;;;;6.60;5.00;;;2.50;99.90;;;;;;5083886;28;20519;-69